Time;durP1;ratioP1;P1;durP2;ratioP2;P2;SDS_P1;SDS_P2;PMS_P1;PMS_P2;Temp;Humidity;BMP_temperature;BMP_pressure;BME280_temperature;BME280_humidity;BME280_pressure;Samples;Min_cycle;Max_cycle;Signal;HPM_P1;HPM_P2
2022/12/07 00:01:25;;;;;;;17.90;7.10;;;;;;;1.98;100.00;99844.48;103247;1280;22501;-63
2022/12/07 00:04:04;;;;;;;22.50;8.00;;;;;;;1.98;100.00;99846.23;103225;1284;22470;-63
2022/12/07 00:06:39;;;;;;;19.80;7.70;;;;;;;1.97;100.00;99843.71;103212;1306;22489;-63
2022/12/07 00:09:15;;;;;;;17.90;5.30;;;;;;;1.98;100.00;99840.08;103289;1284;22907;-60
2022/12/07 00:11:49;;;;;;;19.60;6.30;;;;;;;1.98;100.00;99841.57;103359;1305;22758;-63
2022/12/07 00:14:21;;;;;;;20.20;6.90;;;;;;;1.99;100.00;99840.29;103271;1305;25419;-60
2022/12/07 00:16:54;;;;;;;17.90;6.70;;;;;;;1.99;100.00;99838.33;103224;1277;22477;-63
2022/12/07 00:19:25;;;;;;;17.80;5.50;;;;;;;1.99;100.00;99835.88;103255;1284;22477;-63
2022/12/07 00:21:56;;;;;;;16.30;5.80;;;;;;;1.99;100.00;99835.88;103205;1291;22489;-62
2022/12/07 00:24:28;;;;;;;14.70;5.40;;;;;;;2.00;100.00;99836.80;103278;1306;25128;-63
2022/12/07 00:26:59;;;;;;;17.20;5.80;;;;;;;1.99;100.00;99833.53;103227;1285;22493;-61
2022/12/07 00:29:30;;;;;;;17.00;5.40;;;;;;;1.98;100.00;99832.62;103434;1285;22582;-64
2022/12/07 00:32:01;;;;;;;15.40;5.30;;;;;;;1.97;100.00;99831.53;103204;1284;24369;-64
2022/12/07 00:34:33;;;;;;;16.90;5.10;;;;;;;1.96;100.00;99828.49;103161;1305;22510;-62
2022/12/07 00:37:04;;;;;;;13.50;4.20;;;;;;;1.95;100.00;99827.41;103211;1305;22484;-63
2022/12/07 00:39:36;;;;;;;13.80;3.40;;;;;;;1.95;100.00;99823.64;103224;1283;22644;-63
2022/12/07 00:42:07;;;;;;;13.40;3.90;;;;;;;1.94;100.00;99824.60;103198;1305;22493;-64
2022/12/07 00:44:39;;;;;;;12.60;3.80;;;;;;;1.94;100.00;99820.20;103177;1288;24277;-61
2022/12/07 00:47:10;;;;;;;12.10;3.90;;;;;;;1.95;100.00;99815.55;103160;1284;26532;-64
2022/12/07 00:49:44;;;;;;;9.90;3.00;;;;;;;1.96;100.00;99813.80;103187;1306;22475;-61
2022/12/07 00:52:15;;;;;;;10.30;2.80;;;;;;;1.95;100.00;99811.30;103212;1288;22483;-63
2022/12/07 00:54:46;;;;;;;12.00;3.30;;;;;;;1.96;100.00;99813.25;103204;1305;22595;-63
2022/12/07 00:57:18;;;;;;;11.80;3.50;;;;;;;1.96;100.00;99815.21;103300;1284;25367;-63
2022/12/07 00:59:49;;;;;;;12.80;3.10;;;;;;;1.97;100.00;99821.15;103195;1306;22482;-62
2022/12/07 01:02:20;;;;;;;14.50;3.80;;;;;;;1.98;100.00;99821.29;103162;1285;22473;-62
2022/12/07 01:04:52;;;;;;;10.20;2.80;;;;;;;1.99;100.00;99824.73;103205;1301;22478;-61
2022/12/07 01:07:24;;;;;;;10.50;2.00;;;;;;;1.99;100.00;99826.44;103159;1284;22546;-62
2022/12/07 01:09:57;;;;;;;8.80;2.40;;;;;;;1.99;100.00;99820.40;103256;1285;22482;-62
2022/12/07 01:12:29;;;;;;;9.80;2.40;;;;;;;1.98;100.00;99823.65;103160;1284;24264;-63
2022/12/07 01:15:01;;;;;;;8.50;2.00;;;;;;;1.97;100.00;99819.81;103196;1294;24231;-63
2022/12/07 01:17:32;;;;;;;8.10;2.20;;;;;;;1.96;100.00;99816.94;103299;1305;22488;-63
2022/12/07 01:20:05;;;;;;;7.50;2.00;;;;;;;1.94;100.00;99817.38;103148;1305;23799;-62
2022/12/07 01:22:40;;;;;;;11.60;2.40;;;;;;;1.92;100.00;99817.66;103131;1305;23068;-60
2022/12/07 01:25:14;;;;;;;7.80;2.00;;;;;;;1.92;100.00;99814.38;103303;1280;25230;-63
2022/12/07 01:27:45;;;;;;;8.50;2.20;;;;;;;1.91;100.00;99817.84;103239;1280;22488;-63
2022/12/07 01:30:17;;;;;;;9.60;2.00;;;;;;;1.91;100.00;99812.72;103267;1305;25307;-63
2022/12/07 01:32:49;;;;;;;8.90;1.80;;;;;;;1.91;100.00;99815.63;103267;1304;24767;-62
2022/12/07 01:35:21;;;;;;;11.30;2.20;;;;;;;1.91;100.00;99814.15;103754;1283;25397;-63
2022/12/07 01:37:52;;;;;;;6.30;1.80;;;;;;;1.90;100.00;99814.96;103399;1296;22523;-60
2022/12/07 01:40:24;;;;;;;11.40;1.90;;;;;;;1.90;100.00;99814.64;103157;1306;22540;-62
2022/12/07 01:42:55;;;;;;;8.30;1.90;;;;;;;1.90;100.00;99813.09;103246;1285;25281;-64
2022/12/07 01:45:41;;;;;;;5.90;1.60;;;;;;;1.90;100.00;99810.02;103241;1305;23010;-63
2022/12/07 01:48:16;;;;;;;11.40;2.30;;;;;;;1.90;100.00;99812.39;103156;1280;25630;-63
2022/12/07 01:50:49;;;;;;;7.40;1.60;;;;;;;1.89;100.00;99808.91;103067;1283;22611;-62
2022/12/07 01:53:22;;;;;;;8.40;1.90;;;;;;;1.89;100.00;99809.80;103130;1280;23915;-62
2022/12/07 01:55:56;;;;;;;7.90;1.80;;;;;;;1.89;100.00;99810.58;103226;1280;22490;-63
2022/12/07 01:58:29;;;;;;;8.10;2.00;;;;;;;1.87;100.00;99813.05;103176;1285;22471;-61
2022/12/07 02:01:00;;;;;;;13.50;2.10;;;;;;;1.87;100.00;99816.20;103112;1277;22487;-62
2022/12/07 02:03:37;;;;;;;7.70;1.70;;;;;;;1.87;100.00;99816.52;103194;1285;22465;-62
2022/12/07 02:06:11;;;;;;;9.40;1.40;;;;;;;1.87;100.00;99818.27;103197;1285;26726;-63
2022/12/07 02:08:43;;;;;;;7.90;1.70;;;;;;;1.87;100.00;99822.42;103289;1305;22479;-61
2022/12/07 02:11:15;;;;;;;7.10;1.40;;;;;;;1.87;100.00;99819.05;103256;1280;22473;-62
2022/12/07 02:13:48;;;;;;;9.30;2.00;;;;;;;1.86;100.00;99818.52;103259;1305;22657;-63
2022/12/07 02:16:31;;;;;;;6.60;1.30;;;;;;;1.86;100.00;99815.77;103291;1280;22486;-63
2022/12/07 02:19:25;;;;;;;7.70;1.40;;;;;;;1.86;100.00;99815.52;103206;1285;22507;-65
2022/12/07 02:22:07;;;;;;;9.80;2.10;;;;;;;1.86;100.00;99814.83;103138;1286;23202;-63
2022/12/07 02:24:54;;;;;;;7.40;2.40;;;;;;;1.85;100.00;99815.79;103052;1289;25563;-62
2022/12/07 02:27:44;;;;;;;11.40;2.00;;;;;;;1.84;100.00;99810.94;103123;1308;22692;-62
2022/12/07 02:30:18;;;;;;;7.60;1.10;;;;;;;1.85;100.00;99807.70;103083;1286;22467;-62
2022/12/07 02:32:57;;;;;;;6.20;1.20;;;;;;;1.84;100.00;99804.88;103172;1285;25322;-62
2022/12/07 02:35:33;;;;;;;5.80;1.00;;;;;;;1.83;100.00;99806.95;103291;1288;23773;-64
2022/12/07 02:38:15;;;;;;;6.20;1.10;;;;;;;1.82;100.00;99808.23;103135;1288;25351;-63
2022/12/07 02:40:53;;;;;;;7.70;2.50;;;;;;;1.81;100.00;99811.09;102985;1282;22435;-63
2022/12/07 02:43:28;;;;;;;4.40;0.90;;;;;;;1.80;100.00;99810.65;103126;1285;25338;-64
2022/12/07 02:46:05;;;;;;;4.10;1.00;;;;;;;1.77;100.00;99808.35;103116;1302;22490;-62
2022/12/07 02:48:39;;;;;;;4.20;0.90;;;;;;;1.77;100.00;99810.81;103071;1284;22751;-63
2022/12/07 02:51:10;;;;;;;3.50;1.10;;;;;;;1.75;100.00;99813.13;103116;1286;22472;-64
2022/12/07 02:53:43;;;;;;;4.40;1.00;;;;;;;1.73;100.00;99807.44;103085;1307;22607;-61
2022/12/07 02:56:30;;;;;;;7.40;1.10;;;;;;;1.71;100.00;99806.70;103051;1309;25385;-62
2022/12/07 02:59:11;;;;;;;4.10;1.00;;;;;;;1.70;100.00;99810.17;103035;1309;25983;-63
2022/12/07 03:01:48;;;;;;;;;;;;;;;1.69;100.00;99809.17;103319;1288;24382;-61
2022/12/07 03:04:32;;;;;;;3.20;0.80;;;;;;;1.69;100.00;99806.67;103280;1287;22549;-63
2022/12/07 03:07:12;;;;;;;5.70;1.00;;;;;;;1.67;100.00;99806.25;103223;1305;24835;-63
2022/12/07 03:09:45;;;;;;;;;;;;;;;1.66;100.00;99804.85;103229;1280;24257;-64
2022/12/07 03:12:23;;;;;;;2.80;0.70;;;;;;;1.63;100.00;99800.50;103285;1306;24266;-64
2022/12/07 03:15:02;;;;;;;2.20;0.60;;;;;;;1.62;100.00;99806.90;103247;1280;22485;-64
2022/12/07 03:17:37;;;;;;;3.40;0.70;;;;;;;1.61;100.00;99807.15;103306;1305;22477;-62
2022/12/07 03:20:12;;;;;;;3.80;0.80;;;;;;;1.60;100.00;99808.27;103247;1288;24954;-62
2022/12/07 03:22:46;;;;;;;3.30;0.80;;;;;;;1.60;100.00;99803.73;103185;1305;25312;-62
2022/12/07 03:25:19;;;;;;;4.10;1.00;;;;;;;1.60;100.00;99802.14;103297;1303;24258;-61
2022/12/07 03:27:55;;;;;;;5.50;1.30;;;;;;;1.61;100.00;99795.46;103414;1305;24270;-64
2022/12/07 03:30:31;;;;;;;6.20;1.10;;;;;;;1.60;100.00;99799.64;103232;1280;22677;-63
2022/12/07 03:33:09;;;;;;;5.00;1.10;;;;;;;1.60;100.00;99796.41;103223;1305;22472;-63
2022/12/07 03:35:45;;;;;;;5.10;1.30;;;;;;;1.60;100.00;99795.00;103331;1280;24358;-59
2022/12/07 03:38:21;;;;;;;4.00;1.00;;;;;;;1.60;100.00;99792.95;103258;1305;24229;-63
2022/12/07 03:41:01;;;;;;;5.40;1.00;;;;;;;1.60;100.00;99794.85;103760;1286;22470;-62
2022/12/07 03:43:33;;;;;;;5.20;1.10;;;;;;;1.60;100.00;99789.48;103480;1305;24293;-63
2022/12/07 03:46:16;;;;;;;4.20;1.20;;;;;;;1.59;100.00;99785.20;103175;1287;24366;-62
2022/12/07 03:48:56;;;;;;;4.60;1.20;;;;;;;1.58;100.00;99783.16;103221;1284;22478;-63
2022/12/07 03:51:32;;;;;;;3.20;0.80;;;;;;;1.59;100.00;99782.74;103223;1284;22490;-61
2022/12/07 03:54:12;;;;;;;4.40;1.10;;;;;;;1.60;100.00;99778.88;103406;1305;22464;-63
2022/12/07 03:56:44;;;;;;;5.20;1.50;;;;;;;1.59;100.00;99777.09;103368;1306;22432;-61
2022/12/07 03:59:18;;;;;;;4.70;1.30;;;;;;;1.59;100.00;99776.87;103323;1284;22448;-62
2022/12/07 04:01:55;;;;;;;4.50;1.20;;;;;;;1.58;100.00;99774.84;103278;1305;22477;-62
2022/12/07 04:04:27;;;;;;;4.50;1.20;;;;;;;1.58;100.00;99776.65;103240;1305;22411;-62
2022/12/07 04:06:58;;;;;;;4.50;1.30;;;;;;;1.59;100.00;99777.24;103248;1280;22485;-61
2022/12/07 04:09:30;;;;;;;5.00;1.40;;;;;;;1.59;100.00;99778.83;103245;1285;25370;-63
2022/12/07 04:12:02;;;;;;;3.90;1.10;;;;;;;1.59;100.00;99776.88;103194;1292;24992;-63
2022/12/07 04:14:33;;;;;;;4.40;1.40;;;;;;;1.59;100.00;99777.34;103342;1305;22480;-61
2022/12/07 04:17:05;;;;;;;5.00;1.30;;;;;;;1.60;100.00;99779.59;103252;1305;22477;-63
2022/12/07 04:19:36;;;;;;;4.40;1.20;;;;;;;1.61;100.00;99776.73;103216;1280;22492;-64
2022/12/07 04:22:08;;;;;;;5.60;1.10;;;;;;;1.61;100.00;99782.38;103168;1285;24341;-63
2022/12/07 04:24:40;;;;;;;3.70;1.00;;;;;;;1.61;100.00;99783.58;103221;1287;22487;-63
2022/12/07 04:27:11;;;;;;;4.60;0.90;;;;;;;1.62;100.00;99785.36;103044;1307;295429;-63
2022/12/07 04:29:43;;;;;;;4.80;1.00;;;;;;;1.61;100.00;99784.19;103257;1287;22481;-63
2022/12/07 04:32:14;;;;;;;5.80;1.30;;;;;;;1.61;100.00;99779.66;103153;1280;22466;-63
2022/12/07 04:34:46;;;;;;;3.60;0.90;;;;;;;1.61;100.00;99781.08;103279;1306;22485;-63
2022/12/07 04:37:17;;;;;;;4.00;1.00;;;;;;;1.61;100.00;99780.42;103277;1287;22471;-62
2022/12/07 04:39:49;;;;;;;3.50;0.80;;;;;;;1.61;100.00;99778.23;103253;1310;24276;-63
2022/12/07 04:42:20;;;;;;;3.20;0.80;;;;;;;1.61;100.00;99778.16;103209;1299;22911;-61
2022/12/07 04:44:52;;;;;;;3.00;0.80;;;;;;;1.60;100.00;99776.37;103325;1310;22523;-62
2022/12/07 04:47:23;;;;;;;4.90;0.90;;;;;;;1.60;100.00;99777.15;103281;1309;22505;-61
2022/12/07 04:49:56;;;;;;;3.00;0.70;;;;;;;1.61;100.00;99779.02;103184;1296;25523;-62
2022/12/07 04:52:28;;;;;;;4.10;0.90;;;;;;;1.60;100.00;99772.44;103190;1287;22665;-62
2022/12/07 04:55:00;;;;;;;4.00;0.70;;;;;;;1.59;100.00;99777.95;103247;1312;22466;-61
2022/12/07 04:57:31;;;;;;;3.20;0.90;;;;;;;1.59;100.00;99776.33;103231;1311;22497;-62
2022/12/07 05:00:03;;;;;;;3.30;0.70;;;;;;;1.58;100.00;99777.91;103163;1306;22495;-62
2022/12/07 05:02:34;;;;;;;2.10;0.70;;;;;;;1.57;100.00;99777.71;103288;1308;22480;-63
2022/12/07 05:05:06;;;;;;;3.00;0.70;;;;;;;1.55;100.00;99771.95;103323;1303;25384;-62
2022/12/07 05:07:38;;;;;;;3.80;0.70;;;;;;;1.54;100.00;99773.21;103389;1312;25672;-62
2022/12/07 05:10:11;;;;;;;3.40;0.80;;;;;;;1.54;100.00;99774.95;103342;1285;22526;-62
2022/12/07 05:12:43;;;;;;;4.60;0.80;;;;;;;1.52;100.00;99768.63;103309;1288;24231;-62
2022/12/07 05:15:15;;;;;;;3.80;0.80;;;;;;;1.51;100.00;99772.96;103294;1302;22533;-62
2022/12/07 05:17:48;;;;;;;3.40;0.70;;;;;;;1.51;100.00;99772.17;103451;1304;22474;-62
2022/12/07 05:20:19;;;;;;;3.40;0.80;;;;;;;1.51;100.00;99771.86;103271;1303;22473;-62
2022/12/07 05:22:51;;;;;;;4.10;1.00;;;;;;;1.51;100.00;99770.01;103364;1283;24000;-63
2022/12/07 05:25:22;;;;;;;3.90;1.00;;;;;;;1.51;100.00;99771.55;103113;1291;22474;-62
2022/12/07 05:27:55;;;;;;;4.30;0.90;;;;;;;1.52;100.00;99773.18;103122;1306;23085;-62
2022/12/07 05:30:29;;;;;;;3.30;1.00;;;;;;;1.53;100.00;99771.05;103209;1282;25682;-63
2022/12/07 05:33:00;;;;;;;3.70;1.00;;;;;;;1.54;100.00;99766.37;103274;1275;25433;-61
2022/12/07 05:35:35;;;;;;;6.40;1.20;;;;;;;1.55;100.00;99766.05;103337;1306;22482;-60
2022/12/07 05:38:06;;;;;;;3.80;1.00;;;;;;;1.56;100.00;99769.55;103249;1305;25408;-63
2022/12/07 05:40:39;;;;;;;4.40;1.20;;;;;;;1.57;100.00;99768.28;103162;1284;22477;-63
2022/12/07 05:43:11;;;;;;;7.00;1.60;;;;;;;1.58;100.00;99768.33;103164;1279;25382;-61
2022/12/07 05:45:43;;;;;;;7.30;1.90;;;;;;;1.60;100.00;99768.74;103160;1283;25346;-62
2022/12/07 05:48:14;;;;;;;8.90;2.00;;;;;;;1.62;100.00;99773.96;103963;1296;25209;-63
2022/12/07 05:50:48;;;;;;;8.10;1.90;;;;;;;1.63;100.00;99776.67;103350;1297;22498;-69
2022/12/07 05:53:21;;;;;;;11.10;3.00;;;;;;;1.65;100.00;99775.70;103143;1309;24287;-62
2022/12/07 05:55:53;;;;;;;10.00;2.30;;;;;;;1.66;100.00;99770.89;103156;1280;22473;-63
2022/12/07 06:01:13;;;;;;;14.10;3.20;;;;;;;1.69;100.00;99780.73;103133;1305;22578;-62
2022/12/07 06:03:45;;;;;;;13.70;3.70;;;;;;;1.70;100.00;99782.73;103180;1287;24237;-62
2022/12/07 06:06:16;;;;;;;14.00;5.30;;;;;;;1.71;100.00;99784.05;103154;1282;22580;-62
2022/12/07 06:08:48;;;;;;;19.10;5.60;;;;;;;1.71;100.00;99772.89;103225;1296;22488;-63
2022/12/07 06:14:08;;;;;;;18.90;6.10;;;;;;;1.73;100.00;99772.77;103067;1293;22721;-64
2022/12/07 06:16:42;;;;;;;18.10;6.40;;;;;;;1.74;100.00;99776.21;103211;1293;23232;-61
2022/12/07 06:19:14;;;;;;;19.20;6.10;;;;;;;1.74;100.00;99777.87;103024;1285;22517;-62
2022/12/07 06:21:45;;;;;;;19.00;6.00;;;;;;;1.74;100.00;99774.41;103058;1280;22819;-61
2022/12/07 06:24:18;;;;;;;21.40;6.20;;;;;;;1.74;100.00;99773.52;103247;1305;22565;-61
2022/12/07 06:26:49;;;;;;;20.90;6.40;;;;;;;1.74;100.00;99766.91;103198;1305;22475;-61
2022/12/07 06:29:21;;;;;;;19.10;6.40;;;;;;;1.74;100.00;99767.61;103322;1305;22473;-61
2022/12/07 06:31:53;;;;;;;18.80;6.30;;;;;;;1.75;100.00;99773.34;103237;1305;22553;-62
2022/12/07 06:34:25;;;;;;;18.30;7.00;;;;;;;1.75;100.00;99779.95;103295;1287;25280;-62
2022/12/07 06:36:58;;;;;;;21.50;7.00;;;;;;;1.75;100.00;99774.84;103018;1305;22465;-62
2022/12/07 06:39:30;;;;;;;19.60;6.70;;;;;;;1.77;100.00;99776.14;102966;1285;22459;-63
2022/12/07 06:42:03;;;;;;;23.20;7.50;;;;;;;1.77;100.00;99780.44;102894;1305;22466;-63
2022/12/07 06:44:36;;;;;;;22.10;8.10;;;;;;;1.78;100.00;99778.55;103030;1280;25376;-61
2022/12/07 06:47:09;;;;;;;21.20;7.30;;;;;;;1.79;100.00;99776.86;103050;1280;22590;-61
2022/12/07 06:49:40;;;;;;;25.30;7.60;;;;;;;1.80;100.00;99774.94;103029;1296;24497;-61
2022/12/07 06:52:12;;;;;;;24.00;7.70;;;;;;;1.81;100.00;99774.23;102926;1280;24423;-61
2022/12/07 06:54:44;;;;;;;23.70;8.20;;;;;;;1.81;100.00;99774.69;102979;1277;22475;-62
2022/12/07 06:57:15;;;;;;;23.60;8.60;;;;;;;1.81;100.00;99775.86;103008;1280;25325;-61
2022/12/07 06:59:47;;;;;;;25.10;7.60;;;;;;;1.81;100.00;99775.08;103071;1276;22482;-61
2022/12/07 07:02:19;;;;;;;20.20;6.40;;;;;;;1.80;100.00;99777.20;103166;1287;22485;-61
2022/12/07 07:04:54;;;;;;;24.20;8.80;;;;;;;1.81;100.00;99779.55;103122;1284;24299;-62
2022/12/07 07:07:31;;;;;;;25.60;9.60;;;;;;;1.81;100.00;99777.44;103208;1276;24758;-64
2022/12/07 07:10:02;;;;;;;22.90;8.20;;;;;;;1.81;100.00;99776.55;103045;1285;22619;-63
2022/12/07 07:12:34;;;;;;;22.50;8.50;;;;;;;1.82;100.00;99775.52;102985;1284;25279;-62
2022/12/07 07:15:07;;;;;;;24.20;7.80;;;;;;;1.82;100.00;99775.52;103049;1305;24273;-65
2022/12/07 07:17:38;;;;;;;24.60;9.10;;;;;;;1.81;100.00;99771.85;103042;1297;25133;-64
2022/12/07 07:20:12;;;;;;;23.30;8.50;;;;;;;1.81;100.00;99767.85;103316;1283;24315;-62
2022/12/07 07:22:44;;;;;;;21.90;8.00;;;;;;;1.81;100.00;99769.25;103091;1291;22482;-62
2022/12/07 07:25:16;;;;;;;22.60;8.30;;;;;;;1.80;99.96;99763.29;103156;1280;25281;-63
2022/12/07 07:27:48;;;;;;;23.00;8.10;;;;;;;1.80;99.81;99765.75;103432;1280;22471;-60
2022/12/07 07:30:19;;;;;;;23.60;6.80;;;;;;;1.81;99.51;99767.94;103301;1291;22440;-60
2022/12/07 07:32:51;;;;;;;22.40;8.00;;;;;;;1.81;99.47;99767.13;103390;1305;25452;-63
2022/12/07 07:35:23;;;;;;;24.20;9.40;;;;;;;1.81;99.31;99763.52;102836;1305;22478;-63
2022/12/07 07:37:55;;;;;;;22.30;7.20;;;;;;;1.81;99.52;99767.61;102747;1284;25293;-63
2022/12/07 07:40:28;;;;;;;24.10;7.90;;;;;;;1.81;99.38;99763.61;102793;1277;25332;-63
2022/12/07 07:43:02;;;;;;;23.10;7.60;;;;;;;1.81;99.23;99767.36;103037;1285;25641;-62
2022/12/07 07:45:33;;;;;;;21.30;7.50;;;;;;;1.82;99.17;99766.02;102754;1290;23090;-62
2022/12/07 07:48:05;;;;;;;26.10;9.50;;;;;;;1.84;99.35;99769.19;103210;1306;25397;-62
2022/12/07 07:50:36;;;;;;;27.80;9.20;;;;;;;1.86;99.44;99767.71;103181;1283;22507;-62
2022/12/07 07:53:08;;;;;;;27.10;8.50;;;;;;;1.89;99.35;99768.90;103390;1305;22456;-62
2022/12/07 07:55:42;;;;;;;27.50;8.50;;;;;;;1.91;99.54;99763.80;103276;1300;22515;-61
2022/12/07 07:58:13;;;;;;;24.20;8.20;;;;;;;1.94;99.31;99763.59;102921;1283;25653;-63
2022/12/07 08:00:45;;;;;;;29.10;7.10;;;;;;;1.97;99.12;99762.80;102908;1285;22599;-62
2022/12/07 08:03:16;;;;;;;25.20;9.00;;;;;;;1.99;99.14;99764.86;103017;1283;25325;-62
2022/12/07 08:05:47;;;;;;;25.30;9.20;;;;;;;2.01;99.29;99766.15;106038;1305;24269;-62
2022/12/07 08:08:18;;;;;;;21.10;6.80;;;;;;;2.03;99.38;99767.85;103506;1285;25569;-61
2022/12/07 08:10:51;;;;;;;26.50;8.60;;;;;;;2.04;99.10;99775.66;103021;1282;22482;-62
2022/12/07 08:13:23;;;;;;;21.80;7.70;;;;;;;2.06;99.15;99774.44;102911;1289;22486;-62
2022/12/07 08:15:54;;;;;;;19.90;7.40;;;;;;;2.07;98.77;99776.79;103068;1284;22474;-61
2022/12/07 08:18:26;;;;;;;24.20;8.60;;;;;;;2.08;98.67;99780.75;103151;1280;22462;-61
2022/12/07 08:21:01;;;;;;;22.20;7.90;;;;;;;2.10;98.92;99782.67;102892;1284;24326;-62
2022/12/07 08:23:33;;;;;;;22.70;7.90;;;;;;;2.11;98.90;99783.52;103006;1280;24524;-61
2022/12/07 08:26:06;;;;;;;23.50;7.80;;;;;;;2.12;98.69;99779.78;102790;1291;22476;-62
2022/12/07 08:28:39;;;;;;;25.80;10.00;;;;;;;2.13;98.65;99782.20;102891;1280;22455;-62
2022/12/07 08:31:14;;;;;;;25.80;9.20;;;;;;;2.13;98.62;99778.25;102839;1275;22585;-62
2022/12/07 08:33:45;;;;;;;22.90;7.60;;;;;;;2.13;98.31;99781.50;102967;1306;22496;-61
2022/12/07 08:36:16;;;;;;;25.70;9.20;;;;;;;2.12;98.18;99778.37;103124;1283;26680;-61
2022/12/07 08:38:49;;;;;;;25.10;9.10;;;;;;;2.13;98.19;99781.66;103056;1305;25160;-61
2022/12/07 08:41:21;;;;;;;20.70;7.40;;;;;;;2.12;98.09;99782.27;103095;1305;22769;-61
2022/12/07 08:43:53;;;;;;;21.90;6.80;;;;;;;2.12;97.98;99778.29;103234;1276;25583;-62
2022/12/07 08:46:34;;;;;;;20.40;6.60;;;;;;;2.13;97.86;99776.70;103274;1280;22874;-61
2022/12/07 08:49:12;;;;;;;20.50;6.70;;;;;;;2.15;98.05;99776.01;103079;1283;22475;-61
2022/12/07 08:51:44;;;;;;;22.70;7.90;;;;;;;2.17;97.98;99776.33;102914;1283;22607;-61
2022/12/07 08:54:18;;;;;;;22.50;7.40;;;;;;;2.19;97.45;99770.95;103079;1283;22462;-62
2022/12/07 08:56:51;;;;;;;18.30;6.00;;;;;;;2.22;97.81;99769.77;102911;1305;25260;-62
2022/12/07 08:59:23;;;;;;;22.20;8.60;;;;;;;2.26;97.40;99768.17;103107;1277;24980;-62
2022/12/07 09:01:55;;;;;;;24.40;9.10;;;;;;;2.29;97.50;99761.40;103155;1284;22527;-61
2022/12/07 09:04:27;;;;;;;18.70;7.40;;;;;;;2.33;97.71;99756.65;103046;1291;25355;-62
2022/12/07 09:06:58;;;;;;;21.30;7.50;;;;;;;2.35;97.21;99753.81;102935;1290;22466;-62
2022/12/07 09:09:30;;;;;;;17.20;5.50;;;;;;;2.37;96.62;99750.60;103038;1283;22477;-63
2022/12/07 09:12:01;;;;;;;16.70;5.80;;;;;;;2.39;96.76;99749.77;103206;1305;22479;-62
2022/12/07 09:14:36;;;;;;;20.60;6.80;;;;;;;2.42;96.42;99749.70;103105;1305;22880;-63
2022/12/07 09:17:12;;;;;;;17.70;5.70;;;;;;;2.46;96.83;99747.77;103075;1284;22478;-61
2022/12/07 09:19:43;;;;;;;20.10;6.60;;;;;;;2.53;97.21;99746.65;103046;1280;22474;-62
2022/12/07 09:22:15;;;;;;;18.20;6.70;;;;;;;2.60;97.34;99741.23;103329;1277;22625;-62
2022/12/07 09:24:46;;;;;;;19.50;6.70;;;;;;;2.67;96.97;99736.88;103068;1300;23184;-62
2022/12/07 09:27:18;;;;;;;18.80;5.40;;;;;;;2.74;96.75;99733.59;102911;1305;25424;-61
2022/12/07 09:29:50;;;;;;;15.40;4.80;;;;;;;2.79;96.34;99733.29;103035;1305;22485;-62
2022/12/07 09:32:21;;;;;;;15.30;4.80;;;;;;;2.84;95.54;99727.46;103082;1305;25359;-62
2022/12/07 09:34:53;;;;;;;17.70;6.10;;;;;;;2.89;95.44;99726.21;103059;1285;25426;-62
2022/12/07 09:37:24;;;;;;;15.50;5.60;;;;;;;2.93;95.64;99725.14;102843;1284;22476;-63
2022/12/07 09:39:56;;;;;;;15.20;4.70;;;;;;;2.98;95.65;99721.37;102806;1305;22465;-63
2022/12/07 09:42:34;;;;;;;13.10;3.90;;;;;;;3.03;94.88;99718.61;102758;1283;25351;-63
2022/12/07 09:45:08;;;;;;;15.70;4.20;;;;;;;3.08;94.49;99714.05;102824;1305;22466;-63
2022/12/07 09:47:40;;;;;;;12.60;4.00;;;;;;;3.13;94.95;99709.09;102747;1283;23099;-64
2022/12/07 09:50:17;;;;;;;12.90;3.40;;;;;;;3.18;94.72;99705.14;102783;1299;22647;-63
2022/12/07 09:52:50;;;;;;;11.50;3.20;;;;;;;3.23;94.36;99708.86;102983;1284;24304;-63
2022/12/07 09:55:27;;;;;;;12.50;3.30;;;;;;;3.26;93.83;99701.89;102900;1281;22598;-63
2022/12/07 09:57:59;;;;;;;10.70;3.00;;;;;;;3.30;93.45;99701.13;103121;1283;22520;-63
2022/12/07 10:00:32;;;;;;;13.70;3.70;;;;;;;3.35;93.46;99697.90;103001;1277;25402;-63
2022/12/07 10:03:04;;;;;;;10.60;2.60;;;;;;;3.41;93.45;99699.69;102925;1304;25522;-63
2022/12/07 10:05:40;;;;;;;11.10;2.80;;;;;;;3.44;93.35;99695.25;103084;1280;22460;-63
2022/12/07 10:08:15;;;;;;;13.60;4.30;;;;;;;3.48;93.25;99696.21;102909;1281;22660;-63
2022/12/07 10:10:50;;;;;;;12.50;3.60;;;;;;;3.51;92.98;99695.58;102874;1305;25342;-63
2022/12/07 10:13:34;;;;;;;10.80;3.00;;;;;;;3.54;93.39;99692.73;103098;1277;22473;-64
2022/12/07 10:16:07;;;;;;;16.30;3.30;;;;;;;3.57;93.01;99686.30;102807;1284;25400;-63
2022/12/07 10:18:41;;;;;;;11.20;3.20;;;;;;;3.60;93.03;99679.04;102785;1305;25470;-63
2022/12/07 10:21:20;;;;;;;16.10;4.40;;;;;;;3.63;93.61;99667.08;102923;1283;22591;-63
2022/12/07 10:24:04;;;;;;;16.20;4.30;;;;;;;3.69;93.71;99667.38;102959;1305;22650;-63
2022/12/07 10:26:37;;;;;;;15.10;3.70;;;;;;;3.74;93.81;99661.20;102946;1305;25318;-62
2022/12/07 10:29:19;;;;;;;14.80;4.10;;;;;;;3.77;93.69;99662.18;102728;1283;24372;-64
2022/12/07 10:31:56;;;;;;;15.60;4.40;;;;;;;3.80;93.61;99655.77;102816;1284;24273;-63
2022/12/07 10:34:29;;;;;;;15.80;5.00;;;;;;;3.82;93.60;99656.18;102832;1277;25398;-62
2022/12/07 10:37:25;;;;;;;16.40;5.60;;;;;;;3.83;93.42;99654.58;102918;1293;26501;-63
2022/12/07 10:39:58;;;;;;;16.70;5.40;;;;;;;3.81;93.40;99655.59;102737;1283;22866;-63
2022/12/07 10:42:31;;;;;;;18.70;4.80;;;;;;;3.80;93.40;99658.63;103171;1284;22543;-62
2022/12/07 10:45:15;;;;;;;17.60;5.80;;;;;;;3.79;93.23;99659.77;102905;1305;22468;-63
2022/12/07 10:47:53;;;;;;;17.60;3.80;;;;;;;3.78;93.33;99661.69;102825;1306;24145;-63
2022/12/07 10:50:48;;;;;;;18.30;4.80;;;;;;;3.76;93.35;99657.75;102848;1277;22500;-62
2022/12/07 10:53:44;;;;;;;17.10;4.90;;;;;;;3.73;93.34;99657.21;103108;1280;22478;-63
2022/12/07 10:56:42;;;;;;;15.70;4.20;;;;;;;3.71;93.64;99648.60;103427;1284;25734;-64
2022/12/07 10:59:52;;;;;;;15.10;4.10;;;;;;;3.66;93.19;99650.20;103359;1305;22559;-63
2022/12/07 11:02:47;;;;;;;15.50;3.40;;;;;;;3.59;93.17;99654.68;103383;1277;24390;-63
2022/12/07 11:05:28;;;;;;;15.50;4.50;;;;;;;3.54;93.38;99651.40;103302;1293;22498;-63
2022/12/07 11:08:14;;;;;;;13.70;3.40;;;;;;;3.53;93.54;99648.52;103216;1286;24278;-63
2022/12/07 11:10:51;;;;;;;14.10;3.50;;;;;;;3.49;92.28;99641.86;103355;1284;22488;-62
2022/12/07 11:13:30;;;;;;;8.60;2.00;;;;;;;3.48;92.61;99647.18;103182;1285;22481;-64
2022/12/07 11:16:17;;;;;;;7.80;1.70;;;;;;;3.47;91.98;99649.58;103123;1278;23104;-63
2022/12/07 11:19:01;;;;;;;7.20;1.50;;;;;;;3.45;92.09;99650.06;103298;1285;22757;-63
2022/12/07 11:21:40;;;;;;;7.50;1.80;;;;;;;3.42;92.44;99650.93;103151;1295;22874;-63
2022/12/07 11:24:16;;;;;;;8.20;1.30;;;;;;;3.39;92.87;99651.58;103283;1295;22561;-63
2022/12/07 11:27:09;;;;;;;4.80;1.30;;;;;;;3.35;92.75;99651.79;103332;1309;22562;-63
2022/12/07 11:30:10;;;;;;;7.20;1.50;;;;;;;3.30;92.72;99637.67;103294;1288;22591;-61
2022/12/07 11:32:59;;;;;;;7.40;1.30;;;;;;;3.27;92.85;99631.81;103284;1309;22473;-63
2022/12/07 11:35:45;;;;;;;5.50;1.10;;;;;;;3.26;93.11;99630.17;103304;1288;22514;-63
2022/12/07 11:38:18;;;;;;;7.10;1.50;;;;;;;3.28;93.21;99626.86;103179;1285;22880;-62
2022/12/07 11:40:54;;;;;;;3.80;1.00;;;;;;;3.32;93.04;99624.40;103483;1305;22500;-63
2022/12/07 11:43:32;;;;;;;8.40;1.60;;;;;;;3.34;92.63;99624.23;103283;1283;24953;-63
2022/12/07 11:46:12;;;;;;;6.70;1.40;;;;;;;3.36;92.14;99627.90;103508;1276;22708;-63
2022/12/07 11:48:48;;;;;;;7.20;1.60;;;;;;;3.36;92.22;99626.61;103533;1300;22619;-63
2022/12/07 11:51:22;;;;;;;8.50;1.70;;;;;;;3.36;92.43;99625.42;103484;1283;22440;-63
2022/12/07 11:53:58;;;;;;;5.50;1.40;;;;;;;3.38;92.46;99624.36;103388;1305;23874;-63
2022/12/07 11:56:31;;;;;;;7.80;1.50;;;;;;;3.36;91.98;99621.96;103600;1277;22478;-63
2022/12/07 11:59:10;;;;;;;7.90;1.30;;;;;;;3.37;91.90;99624.93;103373;1284;22460;-63
2022/12/07 12:01:52;;;;;;;6.00;1.30;;;;;;;3.37;91.69;99621.23;103711;1284;24390;-63
2022/12/07 12:04:48;;;;;;;5.30;1.10;;;;;;;3.37;91.41;99623.98;104077;1284;23750;-63